Bancroft, NE (68004)

09:26 CDT le 25 avril 2015 (GMT -0500)
Wayne Municipal | | Change Station
CLOSE
Current Station
Aéroport
Location: Wayne,
Altitude: 1430 ft
Stations météo à proximité

Alt. 1430 ft 42.24 °N, 96.98 °W | Updated 11 minutes ago

Couvert
Couvert
46 ° F
Paraît 38 ° F
N
18
Vent Variable Vent de ENE
Gusts 28 mph

Aujourd'hui
Haut(e) -- | Bas -- ° F
--% Risque de précip.
Hier
Haut(e) -- | Bas -- ° F
Precip. -- pouce
6:30 AM 8:18 PM
Lune montante, 46% visible
Pression 29.64 pouce
Visibilité 5.0 Miles terrestres
Nuages Nuageux 700 ft
Couvert 1100 ft
Refroidissement éolien 38 ° F
Point de rosée 44 ° F
Humidité 93%
Précipitations 0.09 pouce
Profondeur de la couche neigeuse Non disponible.
UV 1 sur 12
Pollen 8.80 sur 12
Qualité de l'air Non disponible.
Flu Activity Local Activity
METAR KLCG 251415Z AUTO 06016G24KT 5SM BR BKN007 OVC011 08/07 A2964 RMK AO2 T00760066

More Conditions Fewer Conditions

Pression 29.64 pouce
Visibilité 5.0 Miles terrestres
Nuages Nuageux 700 ft
Couvert 1100 ft
Refroidissement éolien 38 ° F
Point de rosée 44 ° F
Humidité 93%
Précipitations 0.09 pouce
Profondeur de la couche neigeuse Non disponible.
UV 1 sur 12
Pollen 8.80 sur 12
Qualité de l'air Non disponible.
Flu Activity Local Activity
METAR KLCG 251415Z AUTO 06016G24KT 5SM BR BKN007 OVC011 08/07 A2964 RMK AO2 T00760066

More Conditions Fewer Conditions

10-Day Weather Forecast

Almanac

Astronomie

Apr. 25, 2015 Lever Coucher
Temps réel
Crépuscule civil
Crépuscule nautique
Crépuscule astronomique
Lune
Durée de lumière visible
Longueur du jour
Tomorrow will be .
, % of the Moon is Illuminated

Extrêmes aujourd'hui

State Highs State Lows

Community

WunderPhotos

Upload Photos

1,816,686 Photos téléchargées !

WunderBlogs® & News

Nearby

Qualité de l'air

  Qualité de l'air Indice de la qualité de l'air Polluant
Not available.

Épaisseur de neige

Station Depth Altitude

Activité sismique

Ville Distance Mag. Time & Date
Minimum magnitude displayed is 2.5.

Températures des eaux côtières

Lieu Température

Stations

Stations météo à proximité

Emplacement de la station Température Refroidissement éolien Point de rosée Humidité Vent Precip. Alt. Mise à jour Type